Time;durP1;ratioP1;P1;durP2;ratioP2;P2;SDS_P1;SDS_P2;PMS_P1;PMS_P2;Temp;Humidity;BMP_temperature;BMP_pressure;BME280_temperature;BME280_humidity;BME280_pressure;Samples;Min_cycle;Max_cycle;Signal;HPM_P1;HPM_P2
2021/12/31 00:02:17;;;;;;;;;;;;;;;12.85;86.14;101308.72;5044393;27;19959;-68
2021/12/31 00:04:42;;;;;;;;;;;;;;;12.85;86.22;101303.41;5048426;27;19903;-68
2021/12/31 00:07:07;;;;;;;;;;;;;;;12.88;85.46;101307.63;5065560;27;20325;-68
2021/12/31 00:09:32;;;;;;;;;;;;;;;12.85;85.68;101308.72;5027126;27;20453;-69
2021/12/31 00:11:58;;;;;;;;;;;;;;;12.87;85.44;101308.59;5048039;27;20359;-69
2021/12/31 00:14:23;;;;;;;;;;;;;;;12.91;85.24;101302.03;5044938;27;19903;-69
2021/12/31 00:16:48;;;;;;;;;;;;;;;12.89;84.76;101296.84;5081084;27;19948;-69
2021/12/31 00:19:14;;;;;;;;;;;;;;;12.93;84.72;101300.09;5086893;27;19911;-69
2021/12/31 00:21:42;;;;;;;;;;;;;;;12.90;84.70;101305.66;5064572;27;19902;-68
2021/12/31 00:24:07;;;;;;;;;;;;;;;12.91;84.80;101301.19;5049963;27;20445;-69
2021/12/31 00:26:32;;;;;;;;;;;;;;;12.96;84.16;101290.97;5047518;27;20380;-69
2021/12/31 00:28:58;;;;;;;;;;;;;;;12.91;84.12;101296.72;5042789;27;20019;-69
2021/12/31 00:31:23;;;;;;;;;;;;;;;13.00;83.73;101295.03;5046792;27;19972;-68
2021/12/31 00:33:49;;;;;;;;;;;;;;;12.89;83.43;101298.69;5046186;27;19904;-68
2021/12/31 00:36:14;;;;;;;;;;;;;;;12.98;83.54;101297.84;5062615;27;20042;-68
2021/12/31 00:38:40;;;;;;;;;;;;;;;12.93;83.61;101300.09;5063620;27;20250;-69
2021/12/31 00:41:05;;;;;;;;;;;;;;;12.94;83.07;101296.44;5043122;27;19903;-68
2021/12/31 00:43:30;;;;;;;;;;;;;;;12.97;82.71;101293.53;5045548;27;20078;-70
2021/12/31 00:45:55;;;;;;;;;;;;;;;13.00;82.35;101293.25;5048280;27;20000;-68
2021/12/31 00:48:21;;;;;;;;;;;;;;;12.95;82.46;101289.31;5062853;27;19927;-68
2021/12/31 00:50:46;;;;;;;;;;;;;;;13.01;nan;101302.03;5064558;27;19936;-67
2021/12/31 00:53:11;;;;;;;;;;;;;;;12.94;82.19;101296.44;5063223;27;20005;-67
2021/12/31 00:55:36;;;;;;;;;;;;;;;13.10;81.40;101289.72;5042558;27;19911;-68
2021/12/31 00:58:02;;;;;;;;;;;;;;;12.97;81.93;101288.22;5028248;27;20731;-69
2021/12/31 01:00:28;;;;;;;;;;;;;;;12.90;82.32;101281.75;5026071;27;19899;-68
2021/12/31 01:02:54;;;;;;;;;;;;;;;12.88;82.66;101286.38;5043585;27;19911;-68
2021/12/31 01:05:19;;;;;;;;;;;;;;;12.87;82.84;101290.84;5063603;27;19918;-68
2021/12/31 01:07:44;;;;;;;;;;;;;;;12.82;82.93;101292.25;5067531;27;19904;-67
2021/12/31 01:10:14;;;;;;;;;;;;;;;12.81;83.15;101291.38;5045535;27;20709;-68
2021/12/31 01:12:39;;;;;;;;;;;;;;;12.80;83.47;101299.50;5046680;27;20603;-67
2021/12/31 01:15:12;;;;;;;;;;;;;;;12.76;83.84;101296.28;5045597;27;20044;-68
2021/12/31 01:20:21;;;;;;;;;;;;;;;12.75;83.84;101286.66;5047654;27;19903;-67
2021/12/31 01:22:46;;;;;;;;;;;;;;;12.75;84.22;101293.75;5042085;27;20012;-68
2021/12/31 01:25:12;;;;;;;;;;;;;;;12.74;84.45;101297.41;5052244;27;20810;-69
2021/12/31 01:27:38;;;;;;;;;;;;;;;12.68;84.64;101289.00;5063768;27;19917;-68
2021/12/31 01:30:04;;;;;;;;;;;;;;;12.67;85.20;101289.13;5086593;27;20003;-68
2021/12/31 01:32:30;;;;;;;;;;;;;;;12.66;84.73;101298.06;5081717;27;20308;-69
2021/12/31 01:34:56;;;;;;;;;;;;;;;12.71;84.84;101293.19;5053591;27;19988;-70
2021/12/31 01:37:21;;;;;;;;;;;;;;;12.60;84.56;101299.47;5032205;27;20031;-69
2021/12/31 01:39:46;;;;;;;;;;;;;;;12.52;85.00;101297.50;5038574;27;19945;-69
2021/12/31 01:42:13;;;;;;;;;;;;;;;12.57;85.12;101294.44;5035225;27;20016;-67
2021/12/31 01:44:43;;;;;;;;;;;;;;;12.61;84.85;101300.31;5039118;27;19960;-69
2021/12/31 01:47:12;;;;;;;;;;;;;;;12.62;84.44;101294.88;5054373;27;19911;-67
2021/12/31 01:49:40;;;;;;;;;;;;;;;12.59;84.58;101296.94;5017394;27;19919;-68
2021/12/31 01:52:05;;;;;;;;;;;;;;;12.54;84.60;101297.38;5051469;27;20067;-69
2021/12/31 01:54:31;;;;;;;;;;;;;;;12.59;84.09;101292.47;5034443;27;20132;-69
2021/12/31 01:56:56;;;;;;;;;;;;;;;12.60;84.45;101299.47;5034323;27;19903;-68
2021/12/31 01:59:21;;;;;;;;;;;;;;;12.59;84.30;101292.47;5051934;27;19904;-68
2021/12/31 02:01:46;;;;;;;;;;;;;;;12.60;84.27;101295.97;5019219;27;19911;-67
2021/12/31 02:04:12;;;;;;;;;;;;;;;12.59;84.18;101291.63;5038759;27;20019;-68
2021/12/31 02:06:37;;;;;;;;;;;;;;;12.60;84.31;101285.34;5033103;27;19911;-69
2021/12/31 02:09:03;;;;;;;;;;;;;;;12.58;83.98;101285.50;5036791;27;19937;-69
2021/12/31 02:11:28;;;;;;;;;;;;;;;12.62;83.50;101286.91;5032671;27;20883;-69
2021/12/31 02:13:54;;;;;;;;;;;;;;;12.60;83.35;101288.84;5035021;27;20021;-69
2021/12/31 02:16:19;;;;;;;;;;;;;;;12.54;83.93;101284.91;5037003;27;19907;-68
2021/12/31 02:18:44;;;;;;;;;;;;;;;12.54;83.61;101289.41;5037114;27;19907;-69
2021/12/31 02:21:13;;;;;;;;;;;;;;;12.57;83.45;101289.13;5053193;27;21158;-69
2021/12/31 02:23:44;;;;;;;;;;;;;;;12.48;84.46;101279.31;5033321;27;19921;-69
2021/12/31 02:26:09;;;;;;;;;;;;;;;12.42;84.12;101286.00;5050721;27;19967;-70
2021/12/31 02:28:35;;;;;;;;;;;;;;;12.53;83.82;101282.41;5036826;27;19967;-68
2021/12/31 02:31:03;;;;;;;;;;;;;;;12.47;84.11;101285.59;5052801;27;19900;-69
2021/12/31 02:33:28;;;;;;;;;;;;;;;12.47;83.97;101285.59;5059317;27;19908;-69
2021/12/31 02:35:54;;;;;;;;;;;;;;;12.50;83.85;101286.16;5048077;27;19923;-68
2021/12/31 02:38:19;;;;;;;;;;;;;;;12.51;83.62;101293.16;5033264;27;19964;-67
2021/12/31 02:40:44;;;;;;;;;;;;;;;12.44;84.08;101284.06;5045474;27;20027;-68
2021/12/31 02:43:09;;;;;;;;;;;;;;;12.41;84.11;101272.88;5071286;27;20612;-68
2021/12/31 02:45:37;;;;;;;;;;;;;;;12.41;84.31;101283.47;5074883;27;20396;-68
2021/12/31 02:48:04;;;;;;;;;;;;;;;12.47;83.96;101277.66;5056634;27;20345;-68
2021/12/31 02:50:35;;;;;;;;;;;;;;;12.42;83.42;101279.84;5075807;27;20113;-68
2021/12/31 02:53:05;;;;;;;;;;;;;;;12.48;83.71;101284.59;5073106;27;19903;-69
2021/12/31 02:55:30;;;;;;;;;;;;;;;12.46;83.62;101278.63;5055407;27;19999;-67
2021/12/31 02:57:56;;;;;;;;;;;;;;;12.48;83.31;101272.19;5040610;27;20149;-68
2021/12/31 03:00:21;;;;;;;;;;;;;;;12.47;83.47;101277.66;5018770;27;20163;-69
2021/12/31 03:02:46;;;;;;;;;;;;;;;12.46;83.66;101273.31;5027265;27;20072;-69
2021/12/31 03:05:11;;;;;;;;;;;;;;;12.41;83.23;101273.72;5036263;27;19907;-68
2021/12/31 03:07:37;;;;;;;;;;;;;;;12.47;83.39;101272.34;5034059;27;19907;-69
2021/12/31 03:10:02;;;;;;;;;;;;;;;12.48;83.27;101274.00;5016557;27;19927;-68
2021/12/31 03:12:28;;;;;;;;;;;;;;;12.53;82.99;101274.44;5034594;27;19907;-67
2021/12/31 03:14:54;;;;;;;;;;;;;;;12.50;82.58;101277.38;5052830;27;20265;-68
2021/12/31 03:17:19;;;;;;;;;;;;;;;12.54;82.53;101276.13;5038685;27;19907;-69
2021/12/31 03:19:44;;;;;;;;;;;;;;;12.52;82.24;101272.75;5033681;27;19955;-68
2021/12/31 03:22:10;;;;;;;;;;;;;;;12.49;82.84;101275.69;5033387;27;19913;-68
2021/12/31 03:24:35;;;;;;;;;;;;;;;12.41;82.78;101268.41;5037795;27;19907;-68
2021/12/31 03:27:00;;;;;;;;;;;;;;;12.41;83.10;101279.03;5076113;27;19907;-67
2021/12/31 03:29:26;;;;;;;;;;;;;;;12.41;83.01;101267.56;5076231;27;19970;-67
2021/12/31 03:31:51;;;;;;;;;;;;;;;12.43;82.89;101271.75;5055639;27;20019;-68
2021/12/31 03:34:16;;;;;;;;;;;;;;;12.43;82.85;101276.25;5035215;27;20950;-68
2021/12/31 03:36:42;;;;;;;;;;;;;;;12.43;83.21;101274.41;5040924;27;20040;-68
2021/12/31 03:39:07;;;;;;;;;;;;;;;12.47;82.93;101280.31;5019982;27;19911;-68
2021/12/31 03:41:32;;;;;;;;;;;;;;;12.45;83.11;101280.44;5053500;27;20000;-68
2021/12/31 03:43:57;;;;;;;;;;;;;;;12.49;82.46;101265.06;5035732;27;19919;-67
2021/12/31 03:46:23;;;;;;;;;;;;;;;12.44;82.76;101268.13;5055135;27;19936;-67
2021/12/31 03:48:48;;;;;;;;;;;;;;;12.43;83.29;101255.00;5051677;27;20044;-69
2021/12/31 03:51:13;;;;;;;;;;;;;;;12.37;83.65;101256.38;5037877;27;19903;-68
2021/12/31 03:53:38;;;;;;;;;;;;;;;12.37;83.03;101257.22;5036146;27;19974;-68
2021/12/31 03:56:04;;;;;;;;;;;;;;;12.33;83.69;101261.13;5055460;27;19906;-68
2021/12/31 03:58:29;;;;;;;;;;;;;;;12.38;83.63;101260.72;5032857;27;19907;-68
2021/12/31 04:00:54;;;;;;;;;;;;;;;12.39;83.52;101258.91;5036043;27;19964;-67
2021/12/31 04:03:19;;;;;;;;;;;;;;;12.34;83.26;101252.19;5055967;27;19975;-67
2021/12/31 04:05:45;;;;;;;;;;;;;;;12.41;82.95;101257.78;5054927;27;19903;-68
2021/12/31 04:08:10;;;;;;;;;;;;;;;12.39;82.66;101242.97;5032758;27;19923;-68
2021/12/31 04:10:35;;;;;;;;;;;;;;;12.37;82.65;101249.25;5031921;27;20611;-68
2021/12/31 04:13:01;;;;;;;;;;;;;;;12.37;83.02;101243.94;5035647;27;20154;-70
2021/12/31 04:15:26;;;;;;;;;;;;;;;12.34;83.60;101243.41;5052567;27;19919;-68
2021/12/31 04:17:51;;;;;;;;;;;;;;;12.29;83.40;101243.78;5052070;27;19904;-68
2021/12/31 04:20:38;;;;;;;;;;;;;;;12.28;82.89;101239.47;5054157;27;19911;-68
2021/12/31 04:23:08;;;;;;;;;;;;;;;12.29;82.91;101235.81;5035018;27;20355;-68
2021/12/31 04:25:33;;;;;;;;;;;;;;;12.32;83.09;101234.72;5018207;27;20328;-67
2021/12/31 04:27:58;;;;;;;;;;;;;;;12.24;82.56;101227.44;5014392;27;19900;-67
2021/12/31 04:30:23;;;;;;;;;;;;;;;12.31;82.08;101241.84;5012674;27;19908;-68
2021/12/31 04:32:49;;;;;;;;;;;;;;;12.31;82.45;101233.88;4996628;27;19963;-68
2021/12/31 04:35:14;;;;;;;;;;;;;;;12.30;81.71;101237.50;5031964;27;19900;-68
2021/12/31 04:37:40;;;;;;;;;;;;;;;12.31;81.53;101235.69;5032382;27;19908;-68
2021/12/31 04:40:08;;;;;;;;;;;;;;;12.34;81.66;101243.41;5015220;27;19975;-68
2021/12/31 04:42:33;;;;;;;;;;;;;;;12.41;80.83;101243.66;5015663;27;19964;-68
2021/12/31 04:44:59;;;;;;;;;;;;;;;12.40;81.19;101255.28;5017460;27;20031;-68
2021/12/31 04:47:24;;;;;;;;;;;;;;;12.35;81.14;101245.91;5018587;27;20041;-67
2021/12/31 04:49:49;;;;;;;;;;;;;;;12.47;80.47;101243.13;5050615;27;19923;-67
2021/12/31 04:52:14;;;;;;;;;;;;;;;12.37;80.95;101245.78;5056787;27;20045;-67
2021/12/31 04:54:39;;;;;;;;;;;;;;;12.37;80.53;101243.13;5074613;27;19906;-68
2021/12/31 04:57:05;;;;;;;;;;;;;;;12.30;80.83;101240.16;5075506;27;19921;-68
2021/12/31 04:59:30;;;;;;;;;;;;;;;12.39;80.51;101237.66;5072170;27;19903;-68
2021/12/31 05:01:55;;;;;;;;;;;;;;;12.30;80.72;101229.53;5034701;27;20814;-69
2021/12/31 05:04:20;;;;;;;;;;;;;;;12.34;80.46;101230.94;5032885;27;20162;-68
2021/12/31 05:06:49;;;;;;;;;;;;;;;12.30;80.79;101229.53;5031881;27;19948;-69
2021/12/31 05:09:14;;;;;;;;;;;;;;;12.24;81.23;101230.09;5054224;27;20003;-68
2021/12/31 05:11:39;;;;;;;;;;;;;;;12.32;80.70;101222.31;5028005;27;19903;-69
2021/12/31 05:14:04;;;;;;;;;;;;;;;12.32;80.50;101221.44;5053351;27;19959;-69
2021/12/31 05:16:30;;;;;;;;;;;;;;;12.27;80.58;101218.34;5052882;27;19907;-69
2021/12/31 05:18:55;;;;;;;;;;;;;;;12.26;80.97;101222.81;5074937;27;19911;-68
2021/12/31 05:21:20;;;;;;;;;;;;;;;12.29;80.48;101225.19;5073143;27;20950;-68
2021/12/31 05:23:46;;;;;;;;;;;;;;;12.29;80.45;101232.34;5088219;27;20332;-68
2021/12/31 05:26:11;;;;;;;;;;;;;;;12.25;80.60;101242.38;5085142;27;20227;-68
2021/12/31 05:28:36;;;;;;;;;;;;;;;12.27;80.47;101232.47;5069297;27;20610;-68
2021/12/31 05:31:01;;;;;;;;;;;;;;;12.35;80.03;101242.41;5053141;27;20274;-69
2021/12/31 05:33:27;;;;;;;;;;;;;;;12.35;79.86;101240.59;5052118;27;19944;-68
2021/12/31 05:35:52;;;;;;;;;;;;;;;12.50;79.14;101230.41;5069346;27;19907;-70
2021/12/31 05:38:17;;;;;;;;;;;;;;;12.42;79.45;101230.25;5031125;27;19911;-68
2021/12/31 05:40:42;;;;;;;;;;;;;;;12.26;80.08;101222.81;5034542;27;19907;-68
2021/12/31 05:43:07;;;;;;;;;;;;;;;12.31;80.17;101225.94;5032175;27;19927;-68
2021/12/31 05:45:33;;;;;;;;;;;;;;;12.31;79.86;101220.63;5032747;27;21024;-68
2021/12/31 05:47:58;;;;;;;;;;;;;;;12.28;80.11;101218.25;5035022;27;20372;-68
2021/12/31 05:50:29;;;;;;;;;;;;;;;12.35;79.63;101211.41;5030001;27;20311;-68
2021/12/31 05:52:55;;;;;;;;;;;;;;;12.33;79.81;101218.66;5050021;27;20702;-68
2021/12/31 05:55:20;;;;;;;;;;;;;;;12.28;80.09;101218.25;5032660;27;20011;-68
2021/12/31 05:57:45;;;;;;;;;;;;;;;12.23;80.33;101232.91;5051534;27;19935;-68
2021/12/31 06:00:11;;;;;;;;;;;;;;;12.23;80.36;101233.72;5051849;27;20001;-67
2021/12/31 06:02:36;;;;;;;;;;;;;;;12.19;80.57;101227.84;5035539;27;20008;-67
2021/12/31 06:05:01;;;;;;;;;;;;;;;12.24;80.64;101224.78;5054855;27;20840;-68
2021/12/31 06:07:26;;;;;;;;;;;;;;;12.24;80.45;101219.47;5052904;27;20002;-68
2021/12/31 06:09:52;;;;;;;;;;;;;;;12.26;80.14;101224.66;5054032;27;19923;-68
2021/12/31 06:12:17;;;;;;;;;;;;;;;12.29;80.04;101227.84;5033409;27;20004;-68
2021/12/31 06:14:42;;;;;;;;;;;;;;;12.30;79.98;101218.09;5052203;27;19903;-69
2021/12/31 06:17:08;;;;;;;;;;;;;;;12.32;79.82;101218.78;5050868;27;19948;-68
2021/12/31 06:19:34;;;;;;;;;;;;;;;12.36;79.48;101229.00;5053750;27;20243;-67
2021/12/31 06:21:59;;;;;;;;;;;;;;;12.32;79.81;101222.31;5038467;27;20861;-68
2021/12/31 06:24:24;;;;;;;;;;;;;;;12.34;79.56;101217.69;5053519;27;19903;-68
2021/12/31 06:26:50;;;;;;;;;;;;;;;12.26;80.02;101224.66;5071696;27;19965;-68
2021/12/31 06:29:15;;;;;;;;;;;;;;;12.32;79.64;101232.06;5051501;27;19950;-69
2021/12/31 06:31:40;;;;;;;;;;;;;;;12.23;80.13;101231.06;5054599;27;19907;-69
2021/12/31 06:34:05;;;;;;;;;;;;;;;12.29;79.51;101232.34;5072201;27;19944;-68
2021/12/31 06:36:30;;;;;;;;;;;;;;;12.24;79.81;101224.78;5061056;27;20012;-68
2021/12/31 06:38:57;;;;;;;;;;;;;;;12.15;80.25;101229.06;5032488;27;20398;-68
2021/12/31 06:41:23;;;;;;;;;;;;;;;12.24;79.84;101226.59;5015364;27;19939;-68
2021/12/31 06:43:48;;;;;;;;;;;;;;;12.27;79.62;101219.22;5018840;27;19979;-68
2021/12/31 06:46:13;;;;;;;;;;;;;;;12.34;79.20;101223.00;5051252;27;19922;-68
2021/12/31 06:48:38;;;;;;;;;;;;;;;12.27;79.37;101234.28;5050120;27;19927;-68
2021/12/31 06:51:03;;;;;;;;;;;;;;;12.39;78.95;101233.19;5051074;27;19918;-67
2021/12/31 06:53:29;;;;;;;;;;;;;;;12.24;79.29;101230.09;5051708;27;19918;-69
2021/12/31 06:55:54;;;;;;;;;;;;;;;12.42;78.91;101246.19;5050406;27;19940;-68
2021/12/31 06:58:19;;;;;;;;;;;;;;;12.46;78.50;101233.50;5034236;27;20073;-70
2021/12/31 07:00:44;;;;;;;;;;;;;;;12.31;79.05;101236.53;5031678;27;19903;-68
2021/12/31 07:03:10;;;;;;;;;;;;;;;12.26;79.22;101238.75;5018444;27;19948;-68
2021/12/31 07:05:35;;;;;;;;;;;;;;;12.25;79.24;101237.06;5031259;27;19904;-68
2021/12/31 07:08:01;;;;;;;;;;;;;;;12.18;79.25;101228.81;5051657;27;20937;-68
2021/12/31 07:10:26;;;;;;;;;;;;;;;12.08;79.91;101227.09;5043658;27;20266;-68
2021/12/31 07:12:58;;;;;;;;;;;;;;;12.12;79.79;101226.69;5052028;27;20011;-68
2021/12/31 07:15:23;;;;;;;;;;;;;;;12.03;79.87;101228.34;5034187;27;19899;-68
2021/12/31 07:17:48;;;;;;;;;;;;;;;11.89;80.35;101247.25;5053465;27;19918;-68
2021/12/31 07:20:14;;;;;;;;;;;;;;;12.00;79.81;101230.41;5049007;27;19980;-68
2021/12/31 07:22:39;;;;;;;;;;;;;;;11.97;79.66;101236.84;5067518;27;19959;-67
2021/12/31 07:25:04;;;;;;;;;;;;;;;12.13;79.05;101233.69;5053053;27;20015;-68
2021/12/31 07:27:32;;;;;;;;;;;;;;;11.94;79.58;101239.75;5050778;27;20022;-68
2021/12/31 07:29:57;;;;;;;;;;;;;;;11.84;80.09;101226.44;5071538;27;19919;-68
2021/12/31 07:32:22;;;;;;;;;;;;;;;11.73;80.54;101231.84;5059268;27;19994;-68
2021/12/31 07:34:47;;;;;;;;;;;;;;;11.72;80.36;101245.19;5037092;27;20069;-67
2021/12/31 07:37:12;;;;;;;;;;;;;;;11.76;80.42;101238.66;5056567;27;20372;-67
2021/12/31 07:39:45;;;;;;;;;;;;;;;11.96;79.63;101243.13;5050826;27;20376;-68
2021/12/31 07:42:11;;;;;;;;;;;;;;;11.92;79.74;101246.97;5033708;27;19985;-67
2021/12/31 07:44:36;;;;;;;;;;;;;;;12.04;78.84;101245.09;5034628;27;20073;-67
2021/12/31 07:47:01;;;;;;;;;;;;;;;11.84;79.78;101252.09;5036195;27;20024;-67
2021/12/31 07:49:26;;;;;;;;;;;;;;;11.80;80.10;101250.69;5053022;27;19923;-66
2021/12/31 07:51:51;;;;;;;;;;;;;;;11.72;80.78;101251.38;5055285;27;19910;-67
2021/12/31 07:54:17;;;;;;;;;;;;;;;11.90;79.74;101254.25;5053754;27;19903;-66
2021/12/31 07:56:42;;;;;;;;;;;;;;;11.69;80.53;101254.28;5035573;27;20389;-67
2021/12/31 07:59:07;;;;;;;;;;;;;;;11.73;80.42;101262.78;5051842;27;19970;-67
2021/12/31 08:01:33;;;;;;;;;;;;;;;11.71;80.48;101260.28;5017177;27;20250;-67
2021/12/31 08:03:58;;;;;;;;;;;;;;;11.64;80.74;101259.97;5034842;27;19903;-66
2021/12/31 08:06:23;;;;;;;;;;;;;;;11.61;80.98;101257.56;5048680;27;19911;-68
2021/12/31 08:08:48;;;;;;;;;;;;;;;11.69;80.88;101260.41;5030871;27;20690;-66
2021/12/31 08:11:14;;;;;;;;;;;;;;;11.71;80.41;101264.75;5048070;27;20958;-65
2021/12/31 08:13:39;;;;;;;;;;;;;;;11.89;79.57;101259.66;5051020;27;20848;-67
2021/12/31 08:16:04;;;;;;;;;;;;;;;11.94;79.34;101258.31;5036538;27;19918;-67
2021/12/31 08:18:29;;;;;;;;;;;;;;;11.94;79.34;101255.66;5034411;27;19915;-67
2021/12/31 08:20:55;;;;;;;;;;;;;;;11.96;79.40;101258.22;5051232;27;20795;-67
2021/12/31 08:23:20;;;;;;;;;;;;;;;11.96;78.90;101259.03;5036418;27;19922;-67
2021/12/31 08:25:45;;;;;;;;;;;;;;;11.96;79.08;101253.72;5054435;27;19907;-67
2021/12/31 08:28:10;;;;;;;;;;;;;;;11.99;78.85;101249.97;5033179;27;20035;-67
2021/12/31 08:30:36;;;;;;;;;;;;;;;12.14;78.86;101261.03;5032070;27;20008;-67
2021/12/31 08:33:01;;;;;;;;;;;;;;;12.02;78.65;101266.44;5052952;27;20077;-68
2021/12/31 08:35:26;;;;;;;;;;;;;;;11.96;79.14;101261.69;5035344;27;20827;-68
2021/12/31 08:37:52;;;;;;;;;;;;;;;11.99;79.34;101268.56;5029091;27;19976;-68
2021/12/31 08:40:17;;;;;;;;;;;;;;;11.99;78.91;101268.56;5053390;27;19960;-68
2021/12/31 08:42:42;;;;;;;;;;;;;;;11.99;78.69;101276.50;5058879;27;20024;-68
2021/12/31 08:45:07;;;;;;;;;;;;;;;12.00;78.38;101260.44;5039710;27;20334;-68
2021/12/31 08:47:33;;;;;;;;;;;;;;;12.03;78.62;101262.84;5053580;27;20841;-67
2021/12/31 08:49:58;;;;;;;;;;;;;;;12.08;78.05;101269.56;5060516;27;21189;-68
2021/12/31 08:52:23;;;;;;;;;;;;;;;12.08;78.68;101266.91;5055632;27;20868;-70
2021/12/31 08:54:48;;;;;;;;;;;;;;;11.98;78.76;101267.69;5059478;27;20403;-68
2021/12/31 08:57:14;;;;;;;;;;;;;;;12.02;78.60;101253.19;5038962;27;19910;-67
2021/12/31 08:59:39;;;;;;;;;;;;;;;11.94;78.57;101258.31;5023488;27;19996;-68
2021/12/31 09:02:04;;;;;;;;;;;;;;;12.05;78.02;101267.19;5039047;27;19964;-67
2021/12/31 09:04:29;;;;;;;;;;;;;;;12.02;78.47;101262.97;5031447;27;20016;-67
2021/12/31 09:06:55;;;;;;;;;;;;;;;12.05;78.41;101267.19;5054025;27;19948;-67
2021/12/31 09:09:20;;;;;;;;;;;;;;;12.15;78.23;101268.03;5024417;27;20028;-68
2021/12/31 09:11:45;;;;;;;;;;;;;;;12.00;78.26;101265.75;5043397;27;19913;-68
2021/12/31 09:14:11;;;;;;;;;;;;;;;12.05;78.47;101264.53;5053379;27;19968;-68
2021/12/31 09:16:36;;;;;;;;;;;;;;;12.11;78.10;101266.63;5007014;27;20326;-68
2021/12/31 09:19:01;;;;;;;;;;;;;;;12.09;77.65;101263.28;5029801;27;19979;-66
2021/12/31 09:21:27;;;;;;;;;;;;;;;12.13;77.85;101270.00;5059623;27;20203;-66
2021/12/31 09:23:52;;;;;;;;;;;;;;;12.02;77.95;101269.09;5064719;27;20679;-67
2021/12/31 09:26:17;;;;;;;;;;;;;;;12.12;78.03;101265.66;5034429;27;20663;-68
2021/12/31 09:28:42;;;;;;;;;;;;;;;12.12;78.08;101268.31;5017256;27;20668;-68
2021/12/31 09:31:09;;;;;;;;;;;;;;;12.17;77.71;101276.72;5024580;27;20772;-68
2021/12/31 09:33:34;;;;;;;;;;;;;;;12.21;77.80;101264.84;5040146;27;19911;-67
2021/12/31 09:35:59;;;;;;;;;;;;;;;12.15;77.91;101270.69;5031746;27;19930;-67
2021/12/31 09:38:25;;;;;;;;;;;;;;;12.19;78.17;101269.47;5029022;27;19911;-66
2021/12/31 09:40:50;;;;;;;;;;;;;;;12.16;77.94;101264.44;5024296;27;19957;-67
2021/12/31 09:43:15;;;;;;;;;;;;;;;12.26;77.56;101267.94;5043152;27;20023;-68
2021/12/31 09:45:44;;;;;;;;;;;;;;;12.33;77.47;101262.94;5054308;27;20016;-68
2021/12/31 09:48:13;;;;;;;;;;;;;;;12.33;77.95;101282.34;5025465;27;19912;-66
2021/12/31 09:50:39;;;;;;;;;;;;;;;12.39;77.36;101283.63;5029055;27;19915;-68
2021/12/31 09:53:05;;;;;;;;;;;;;;;12.36;77.30;101271.44;5030128;27;19964;-66
2021/12/31 09:55:34;;;;;;;;;;;;;;;12.42;77.41;101264.75;5030219;27;20524;-68
2021/12/31 09:57:59;;;;;;;;;;;;;;;12.45;77.13;101275.13;5052000;27;19934;-67
2021/12/31 10:00:26;;;;;;;;;;;;;;;12.42;77.21;101275.38;5038851;27;20634;-67
2021/12/31 10:03:07;;;;;;;;;;;;;;;12.43;76.99;101261.13;5036926;27;20838;-66
2021/12/31 10:05:37;;;;;;;;;;;;;;;12.42;76.94;101264.75;5055924;27;19907;-68
2021/12/31 10:08:03;;;;;;;;;;;;;;;12.46;77.06;101260.03;5034597;27;19959;-68
2021/12/31 10:10:29;;;;;;;;;;;;;;;12.48;77.07;101245.66;5037156;27;20011;-68
2021/12/31 10:12:56;;;;;;;;;;;;;;;12.55;76.63;101240.66;5057006;27;19911;-67
2021/12/31 10:15:22;;;;;;;;;;;;;;;12.60;76.46;101235.75;5035898;27;20268;-69
2021/12/31 10:17:47;;;;;;;;;;;;;;;12.52;76.54;101235.59;5019926;27;19926;-68
2021/12/31 10:20:13;;;;;;;;;;;;;;;12.62;76.64;101248.88;5030202;27;19944;-67
2021/12/31 10:22:38;;;;;;;;;;;;;;;12.59;76.55;101243.84;5011501;27;19951;-66
2021/12/31 10:25:16;;;;;;;;;;;;;;;12.62;76.49;101238.25;5034942;27;19926;-68
2021/12/31 10:27:42;;;;;;;;;;;;;;;12.71;76.30;101238.25;5051366;27;19903;-67
2021/12/31 10:30:07;;;;;;;;;;;;;;;12.70;75.77;101236.59;5032436;27;20059;-67
2021/12/31 10:32:33;;;;;;;;;;;;;;;12.71;75.83;101250.72;5017401;27;19985;-67
2021/12/31 10:35:09;;;;;;;;;;;;;;;12.69;76.35;101250.00;5035604;27;19987;-69
2021/12/31 10:37:40;;;;;;;;;;;;;;;12.85;75.54;101254.78;5033021;27;19915;-67
2021/12/31 10:40:06;;;;;;;;;;;;;;;12.84;75.33;101258.41;5019976;27;19903;-67
2021/12/31 10:42:32;;;;;;;;;;;;;;;12.98;75.13;101254.50;5052783;27;19911;-68
2021/12/31 10:45:01;;;;;;;;;;;;;;;12.97;74.98;101261.66;5028233;28;20036;-67
2021/12/31 10:47:29;;;;;;;;;;;;;;;13.16;74.25;101265.28;5032021;28;19997;-67
2021/12/31 10:50:00;;;;;;;;;;;;;;;13.13;74.20;101273.50;5031058;28;19938;-66
2021/12/31 10:52:28;;;;;;;;;;;;;;;13.03;74.49;101277.00;5009008;28;20705;-66
2021/12/31 10:55:02;;;;;;;;;;;;;;;13.20;73.77;101269.31;4992368;28;19904;-68
2021/12/31 10:57:34;;;;;;;;;;;;;;;13.50;72.33;101259.53;5007334;28;20717;-67
2021/12/31 10:59:59;;;;;;;;;;;;;;;13.56;72.42;101256.28;5003678;28;20689;-67
2021/12/31 11:02:24;;;;;;;;;;;;;;;13.50;72.29;101243.56;5029116;28;19922;-68
2021/12/31 11:04:50;;;;;;;;;;;;;;;13.44;72.79;101223.72;5028755;27;19903;-67
2021/12/31 11:07:15;;;;;;;;;;;;;;;13.43;72.88;101210.56;5001934;27;19907;-67
2021/12/31 11:09:42;;;;;;;;;;;;;;;13.40;72.87;101212.50;5008826;27;20381;-67
2021/12/31 11:12:07;;;;;;;;;;;;;;;13.46;72.33;101212.94;5032789;27;19908;-66
2021/12/31 11:14:33;;;;;;;;;;;;;;;13.42;72.92;101214.19;5031258;27;20378;-68
2021/12/31 11:16:59;;;;;;;;;;;;;;;13.45;72.14;101203.25;5002438;27;20001;-69
2021/12/31 11:19:25;;;;;;;;;;;;;;;13.32;72.95;101204.38;4996958;27;19988;-68
2021/12/31 11:21:51;;;;;;;;;;;;;;;13.21;72.93;101212.50;4999439;27;20016;-68
2021/12/31 11:24:30;;;;;;;;;;;;;;;13.16;73.49;101202.31;5014022;27;21061;-67
2021/12/31 11:26:55;;;;;;;;;;;;;;;13.12;74.18;101202.75;5034197;27;19903;-67
2021/12/31 11:29:21;;;;;;;;;;;;;;;13.04;74.83;101217.59;4997315;27;20387;-67
2021/12/31 11:31:46;;;;;;;;;;;;;;;13.09;74.11;101187.94;5014451;27;19988;-68
2021/12/31 11:34:12;;;;;;;;;;;;;;;13.05;74.84;101202.47;5031604;27;19908;-68
2021/12/31 11:36:54;;;;;;;;;;;;;;;13.08;74.99;101188.91;5025483;27;20267;-67
2021/12/31 11:39:24;;;;;;;;;;;;;;;13.04;74.89;101176.88;4996511;27;20989;-68
2021/12/31 11:41:50;;;;;;;;;;;;;;;13.04;74.67;101185.72;5028333;27;20138;-68
2021/12/31 11:44:17;;;;;;;;;;;;;;;12.98;74.85;101182.78;5028989;27;19922;-69
2021/12/31 11:46:46;;;;;;;;;;;;;;;13.01;74.88;101187.78;5032229;27;20020;-68
2021/12/31 11:49:19;;;;;;;;;;;;;;;13.04;74.84;101180.41;5012759;27;20939;-68
2021/12/31 11:52:06;;;;;;;;;;;;;;;13.08;75.03;101188.91;5029872;27;20334;-67
2021/12/31 11:54:32;;;;;;;;;;;;;;;13.09;74.50;101192.41;5030351;27;19914;-67
2021/12/31 11:56:59;;;;;;;;;;;;;;;13.17;74.19;101184.53;5012724;27;20197;-67
2021/12/31 11:59:31;;;;;;;;;;;;;;;13.20;74.28;101179.81;5012413;27;20314;-67
2021/12/31 12:02:11;;;;;;;;;;;;;;;13.16;73.60;101169.59;5031706;27;19903;-67
2021/12/31 12:04:39;;;;;;;;;;;;;;;13.22;74.74;101177.81;5033774;27;20021;-67
2021/12/31 12:07:04;;;;;;;;;;;;;;;13.22;74.18;101183.13;5016459;27;19930;-67
2021/12/31 12:09:35;;;;;;;;;;;;;;;13.27;74.30;101185.38;5029221;27;19927;-67
2021/12/31 12:12:17;;;;;;;;;;;;;;;13.31;73.99;101192.09;5033728;27;19908;-67
2021/12/31 12:14:49;;;;;;;;;;;;;;;13.30;74.18;101185.09;5028817;27;20362;-68
2021/12/31 12:17:15;;;;;;;;;;;;;;;13.36;73.96;101170.41;5030164;27;19948;-68
2021/12/31 12:19:47;;;;;;;;;;;;;;;13.37;73.98;101178.25;5033322;27;20008;-68
2021/12/31 12:22:25;;;;;;;;;;;;;;;13.49;73.83;101186.03;5037937;27;19908;-68
2021/12/31 12:24:50;;;;;;;;;;;;;;;13.54;73.67;101167.84;5030995;27;20326;-68
2021/12/31 12:27:16;;;;;;;;;;;;;;;13.47;73.50;101169.41;5006901;27;19981;-67
2021/12/31 12:29:41;;;;;;;;;;;;;;;13.50;73.72;101177.09;5011929;27;20768;-67
2021/12/31 12:32:07;;;;;;;;;;;;;;;13.61;73.71;101168.94;4996182;27;20505;-67
2021/12/31 12:34:32;;;;;;;;;;;;;;;13.82;73.25;101175.81;5012782;27;19972;-67